Member area
Imprimable
Villers-la-Ville, 06/10/2018, BEL - Trail de l'Abbaye
List of reports > 30km - Result
Search: Page: [1]
225 Entries
 
Complains are not accepted anymore. Results are final.
Category
PosNrNameAgeNATLeagueTeamRealTimeTkmMoy.PlaceNameScrCity
1.273VAN LOKEREN STIJN38BEL2:03:342:03:384:08 14.561hom1SINT-PAUWELS
2.1277PEIRSMAN YVES36BEL2:13:072:13:114:27 13.522hom2LUBBEEK
3.239LIBERT DAMIEN27BEL2:14:412:14:454:30 13.363hom3SAINT-SERVAIS
4.548MAHIA SEBASTIEN32BEL2:15:372:15:374:32 13.274hom4NAMUR
5.490TRULLEMANS JEAN-LUC45BEL2:17:422:17:564:36 13.055hom5
6.518VAN GULCK OLIVIER35BEL2:18:072:18:124:37 13.026hom6BRUXELLES
7.522SERVRANCKX KEVIN36BEL2:18:272:18:334:38 12.997hom7SINT-JORIS-WEERT
8.1061JOYE MAARTEN38BEL2:19:332:19:384:40 12.898hom8EVERBEEK
9.144DETRAIT HUGUES30BEL2:21:022:21:024:43 12.769hom9PHILIPPEVILLE
10.980RIQUET BENJAMIN31BEL2:22:412:22:444:46 12.6110hom10BAISY-THY
11.143EGO LAURENT30BEL2:23:052:23:104:47 12.5711hom11WOLUWE-SAINT-LAMBERT
12.174HANNEQUART XAVIER40BEL2:23:302:23:434:48 12.5312hom12CHASTRE
13.954LEPLAE PASCAL47BEL2:24:142:24:174:49 12.4813hom13NIVELLES
14.520VERDOOT XAVIER40BEL2:24:382:24:444:50 12.4414hom14GENVAL
15.495GIVRON RÉGIS ROBERT28BEL2:25:112:25:114:51 12.4015hom15CHARLEROI
16.361DELHAISE JEAN-MARTIN37BEL2:25:122:25:154:51 12.3916hom16EVERE
17.138CAMPION JONAS36BEL2:26:152:26:214:53 12.3017hom17COURT ST ETIENNE
18.367SCHOUMACKERS BENOÎT44BEL2:29:032:29:034:59 12.0818hom18HUY
19.328DURIEU ANTOINE35BEL2:29:432:29:485:00 12.0219hom19BRAINE LE CHÂTEAU
20.327BLONDEL JEAN-BAPTISTE38BEL2:30:082:30:135:01 11.9820hom20NIVELLES
21.274COLLOT JO54BEL2:31:302:31:345:04 11.8821hom21GREZ-DOICEAU
22.445COLLIGNON AXEL27BEL2:31:422:31:455:04 11.8622hom22LIBRAMONT-CHEVIGNY
23.426MAES GUILLAUME29BEL2:31:392:31:545:04 11.8523hom23WSL
24.474BOYDENS BART46BEL2:32:082:32:165:05 11.8224hom24OVERIJSE
25.383DELERS MAXIMILIEN32BEL2:32:472:32:525:06 11.7825hom25SOIGNIES
26.488CLAEYS YVES31BEL2:32:582:33:095:07 11.7526hom26SCHEPDAAL
27.113JACQUES EDDY48BEL2:33:572:34:055:09 11.6827hom27MANAGE
28.983SANA FLORENT28BEL2:34:092:34:255:09 11.6628hom28LUTTRE
29.381JEUNEHOMME DENIS44BEL2:36:262:36:335:14 11.5029hom29AMAY
30.359MALISOUX LAURENT40BEL2:36:302:36:345:14 11.5030hom31CHANTEMELLE
31.1313ELOY MATHIEU38BEL2:36:302:36:345:14 11.5031hom32BRYE
32.977VALOIS ALLAN23BEL2:36:512:36:545:14 11.4732hom33NAAST
33.487CARNOY FRANCOIS31BEL2:37:382:37:495:16 11.4133hom34BRUXELLES
34.78VAN DEN BOGAERT MIGUEL31BEL2:37:292:38:005:16 11.3934hom35ETTERBEEK
35.1090SCHOUPPE ANDY38BEL2:38:262:38:315:18 11.3635hom36DENDERWINDEKE
36.145RATINCKX JEAN-PHILIPPE30BEL2:39:042:39:085:19 11.3136hom37OTTIGNIES
37.497CASTEL BENJAMIN36FRA2:39:422:39:485:20 11.2637hom38BRAINE-L'ALLEUD
38.153TIMMERMANS GAETAN30BEL2:39:472:39:525:20 11.2638hom39ETTERBEEK
39.98STOUFFS ADRIEN26BEL2:39:542:40:045:21 11.2539hom40OTTIGNIES
40.1269LAHAYE PHILIPPE54BEL2:39:542:40:045:21 11.2540hom41GREZ-DOICEAU
41.992VAN ROY WARD42BEL2:40:432:40:515:22 11.1941hom42ARENDONK
42.350MICHEL JEAN-BENOIT39BEL2:41:082:41:145:23 11.1642hom43MORNIMONT
43.1411VAN CAUWENBERGH PHILIPPE47BEL2:41:272:41:345:24 11.1443hom44LOVERVAL
44.479DEWAEL YANNICK42BEL2:42:262:42:275:25 11.0844hom45WALHAIN
45.501DHAENENS DOLF24BEL2:42:322:42:425:26 11.0645hom46KORTRIJK
46.418DESCAMPS FRANÇOIS37BEL2:42:332:42:425:26 11.0646hom47MONTIGNIES LEZ LENS
47.1276AMADDEO MARLON26BEL2:43:302:43:405:28 11.0047hom48MARCINELLE
48.333JACQUES JULIEN29BEL2:44:042:44:105:29 10.9748hom49WATERLOO
49.391DECLERCQ BENOIT42BEL2:44:122:44:195:29 10.9549hom50MOUSCRON
50.448JACQUES ADRIEN35BEL2:44:132:44:265:29 10.9550hom51FLAWINNE
51.303VERRIEST JONATHAN32BEL2:45:002:45:105:31 10.9051hom52MARBAIS (BT.)
52.302VERRIEST DAMIEN30BEL2:45:002:45:115:31 10.9052hom53IXELLES
53.450REMAN SIMON32BEL2:45:062:45:205:31 10.8953hom54NAMUR
54.466HENRI HOUTART30BEL2:45:322:45:325:32 10.8754hom55BRUXELLES
55.405LAUREYS PIERRE57BEL2:45:322:45:405:32 10.8755hom56COURT-SAINT-ETIENNE
56.24PEETERS NICOLAS31BEL2:45:162:45:475:32 10.8656hom57WEZEMBEEK-OPPEM
57.433ROUSSEAU DAVID45BEL2:46:282:46:455:34 10.7957hom58VILLE EN HESBAYE
58.379BUYTAERT FRANK47BEL2:46:192:46:465:34 10.7958hom59WORTEL
59.1092DE GROOTE EDOUARD31BEL2:46:372:46:475:34 10.7959hom60GENVAL
60.425GONZE BENJAMIN34BEL2:46:462:46:525:34 10.7960hom61VILLERS-LA-VILLE
61.186VRAL THIJS26BEL2:46:482:47:015:35 10.7861hom62GENT
62.484PAULUS DAVID43BEL2:47:032:47:095:35 10.7762hom63
63.1232SCHREURS SÉBASTIEN42BEL2:47:152:47:175:35 10.7663hom64OTTIGNIES
64.349LIXANDRU ANDREI39ROU2:47:212:47:275:35 10.7564hom65VALENCIENNES
65.1085POTIER FREDERIC46BEL2:48:332:48:515:38 10.6665hom66NIVELLES
66.413HOTTIAUX CÉDRIC33BEL2:49:352:49:405:40 10.6166hom67LOUPOIGNE
67.1007VAN CAMP SÉBASTIEN42BEL2:49:372:49:405:40 10.6167hom68VIRGINAL
68.79REUBENS JÉRÔME25BEL2:49:402:50:005:40 10.5968hom69HOEILAART
69.1309VANDERPERREN CÉDRIC47BEL2:49:472:50:015:41 10.5969hom70RHODE-SAINT-GENÈSE
70.167WATTIAUX COLI37BEL2:49:432:50:015:41 10.5970hom71BAULERS
71.372MARCHI STEPHANE46BEL2:50:252:50:355:42 10.5571hom72ANDERLUES
72.1270JONARD FRANCOIS-DAVID40BEL2:50:302:50:365:42 10.5572hom74COURT-SAINT-ETIENNE
73.978COTTEELS MAXENCE29BEL2:51:582:52:165:45 10.4573hom75PONT A CELLES
74.275LEVY THOMAS21BEL2:52:322:52:405:46 10.4374hom76LATHUY
75.1320LIPPOLIS ADIEN31ITA2:52:452:52:565:46 10.4175hom77BRUXELLES
76.362DELPIERRE ROMAIN24BEL2:53:062:53:135:47 10.3976hom78OTTIGNIES
77.172FOX STÉPHAN41BEL2:53:102:53:185:47 10.3977hom79GESVES
78.6ERICX EDDY52BEL2:53:392:53:455:48 10.3678hom80REBAIX
79.515GEROGES BENOIT39BEL2:53:412:53:495:48 10.3679hom81
80.1284VOET MATTHIEU26BEL2:54:012:54:165:49 10.3380hom83MARBISOUX
81.414VERBRUGGEN PHILIPPE40BEL2:54:272:54:335:50 10.3181hom85RHODE-SAINT-GENÈSE
82.345VINCKENBOSCH JEAN-SÉBASTIEN28BEL2:54:292:54:365:50 10.3182hom86COURT-SAINT-ETIENNE
83.158CORDIER PASCAL48BEL2:54:412:54:455:50 10.3083hom87FOREST
84.272BOURDOUX THIERRY36BEL2:54:332:54:505:50 10.3084hom88BRUXELLES
85.165DE SAEDELEER OLIVIER35BEL2:56:162:56:215:53 10.2185hom89CORROY LE CHATEAU
86.1044DEGEYTER DIMITRI37BEL2:56:312:56:425:54 10.1986hom90SENEFFE
87.467ROBYNS JÉRÔME32BEL2:56:452:57:005:54 10.1787hom91WOLUWE-SAINT-LAMBERT
88.358NÉMÉGAIRE LAURENT47BEL2:57:212:57:255:55 10.1588hom92JANDRAIN
89.180COULY BENOIT30BEL2:57:232:57:385:56 10.1389hom93GEMBLOUX
90.415CODUTTI MARCO50BEL2:58:292:58:455:58 10.0790hom95BRUXELLES
91.941CASSEZ ALEXANDRE39FRA2:58:352:58:545:58 10.0691hom96BRUXELLES
92.1197VERSTICHEL ALAIN56BEL2:59:212:59:326:00 10.0392hom97THUIN
93.206EVRARD THEODORE19BEL3:00:023:00:096:01 9.9993hom98LATHUY
94.149DELPERDANGE MAXIME19BEL3:00:023:00:106:01 9.9994hom99JODOIGNE-SOUVERAINE
95.427BARBULESCU ALECSANDRU38BEL3:00:243:00:316:02 9.9795hom100BOUSVAL
96.1261STEPHAN THIBAUD33FRA3:00:233:00:426:02 9.9696hom101SCHAERBEEK
97.1080FLAMENT PIERRE26FRA3:01:083:01:126:03 9.9397hom103AUDERGHEM
98.1052DE SMET MICHAEL42BEL3:01:153:01:206:03 9.9398hom104FRASNES-LEZ-GOSSELIES
99.127MONTERO PIERRE53BEL3:01:103:01:266:03 9.9299hom105AUDERGHEM
100.452REMAN BRUNO36BEL3:01:233:01:376:04 9.91100hom106TEMPLOUX
101.323SARICH ALESSANDRO32BEL3:01:373:01:486:04 9.90101hom107GENVAL
102.184MICHAUDET ANTOINE26FRA3:01:423:01:566:04 9.89102hom108RAISMES
103.1089HUBEAUX VINCENT49BEL3:02:293:02:546:06 9.84103hom109FLAWINNE
104.150MICHEL OLIVIER37BEL3:02:283:02:546:06 9.84104hom110GEMBLOUX
105.1553CHEYROU-LAGRÈZE THIBAULT29FRA3:03:423:03:496:08 9.79105hom111CONTAMINE SUR ARVE
106.135JEANMART HERVÉ45BEL3:04:583:05:076:11 9.72106hom112JAMBES
107.1091VANDEN-BULCKE VICTOR24BEL3:05:003:05:086:11 9.72107hom113SOMBREFFE
108.384VAN DEN ESSEN TON51NLD3:05:043:05:196:11 9.71108hom114GELEEN
109.439VENOT PIERRE42FRA3:05:153:05:206:11 9.71109hom115RIXENSART
110.168BOULET ETIENNE37BEL3:05:423:06:026:13 9.68110hom116NIVELLES
111.1094POSKIN THIERRY59BEL3:05:563:06:206:13 9.66111hom117OBAIX
112.486HONGNE STEFAN43BEL3:06:343:06:436:14 9.64112hom118ENGHIEN
113.1057VIVIER GEOFFREY43BEL3:06:223:06:446:14 9.64113hom119ATH
114.1067NICOL FABIAN37BEL3:07:103:07:276:15 9.60114hom120OTTIGNIES
115.129GHIGNY THOMAS36BEL3:07:333:07:406:16 9.59115hom122GRAND MANIL
116.430MINET JEAN-PAUL58BEL3:07:323:07:486:16 9.59116hom123BIEZ
117.1231DE KUYPER CÉDRIC37BEL3:07:593:08:146:17 9.56117hom124BRUXELLES
118.392JAUMOTTE STÉPHANE31BEL3:08:073:08:156:17 9.56118hom125HAN-SUR-LESSE
119.511ESTERHAZY NICHOLAS57BEL3:08:163:08:496:18 9.53119hom126WAVRE
120.968PARDOEN THOMAS47BEL3:08:473:08:556:18 9.53120hom127MONT SAINT GUIBERT
121.260DORATIOTTO MATHIEU25BEL3:08:593:09:056:19 9.52121hom128GRAND-LEEZ
122.1047VANDENHOUCKE LIEVEN51BEL3:08:513:09:216:19 9.51122hom129GENT
123.519DUCHEMIN PHILIPPE39BEL3:09:333:09:446:20 9.49123hom131NIVELLES
124.163LIEVENS CLAUDE-PHILIPPE32BEL3:09:223:09:446:20 9.49124hom132DION-VALMONT
125.107KEGELS LAURENT47BEL3:09:523:10:056:21 9.47125hom133BRUXELLES
126.1268MAROT PHILIPPE41BEL3:11:063:11:156:23 9.41126hom134CHASTRE
127.1050VAN NUFFELEN BASTIEN31BEL3:11:323:11:526:24 9.38127hom136GILLY
128.1279VOUÉ THIERRY45BEL3:12:043:12:306:25 9.35128hom137BAISY-THY
129.958QUIQUEMPOIX MICHEL55BEL3:12:333:12:446:26 9.34129hom139LASNE
130.1054COUVREUR CHARLES21BEL3:12:413:12:536:26 9.33130hom140MARBAIS
131.1043MALBURNY JULIEN35BEL3:12:593:13:196:27 9.31131hom141SOMBREFFE
132.1281LENOIR ROBIN24BEL3:13:463:13:556:28 9.28132hom142SILLY
133.378RENAUT JONATHAN29BEL3:14:013:14:226:29 9.26133hom143MANAGE
134.956DIEUDONNE MICHEL49BEL3:14:253:14:316:30 9.25134hom144CERFONTAINE
135.130MATHIEU CÉDRIC33BEL3:14:413:14:536:30 9.24135hom145SOMBREFFE
136.494DELAHAYE YVES58BEL3:14:433:15:046:31 9.23136hom146GEMBLOUX
137.472CHAUVIER JEAN-PIERRE58BEL3:15:313:15:466:32 9.19137hom147YVES-GOMEZEE
138.5JACOBS FRANÇOIS-DOMINIQUE58BEL3:15:583:16:206:33 9.17138hom148OTTIGNIES
139.964SNEESSENS ALAIN48BEL3:16:383:16:546:34 9.14139hom149JODOIGNE
140.1280HEUREUX NICOLAS39BEL3:16:543:17:156:35 9.13140hom150LONZEE
141.1049RENWART DIMITRI29BEL3:17:233:17:296:35 9.12141hom151WAUTHIER-BRAINRE
142.464O'NEILL SHANE32IRL3:17:463:18:006:36 9.09142hom152ETTERBEEK
143.126MOROSO JEAN-FRANÇOIS44BEL3:18:493:18:566:38 9.05143hom153VILLERS-PERWIN
144.351DESWAEF VINCENT31BEL3:18:593:19:106:39 9.04144hom154NIVELLES
145.374MERTENS RAPHAEL44BEL3:19:093:19:226:39 9.03145hom156EMINES
146.170DELAERE CHRISTOPHE55BEL3:19:293:19:526:40 9.01146hom158BRUXELLES
147.966LEBRUN EMMANUEL50BEL3:19:533:20:116:41 8.99147hom159ARBRE
148.1243GHISLAIN NICOLAS34BEL3:20:043:20:306:41 8.98148hom160INCOURT
149.128RUVEL JULIEN34FRA3:20:183:20:376:42 8.97149hom161TOURCOING
150.1253COURTIN BRUNO46BEL3:20:203:20:416:42 8.97150hom162GENVAL
151.999SAINT GHISLAIN GERT54BEL3:20:483:20:596:42 8.96151hom165MERKSEM
152.428MOREL ADRIEN31FRA3:20:443:21:026:43 8.95152hom166LILLE
153.973DOOREMONT KJELL38BEL3:20:373:21:046:43 8.95153hom167LEBBEKE
154.988HOTAT MICHEL49BEL3:21:163:21:276:43 8.94154hom171VILLERS-LA-VILLE
155.159CUENOT TRISTAN45FRA3:21:343:21:436:44 8.92155hom172PAPIGNIES
156.969GASON FABRICE48BEL3:21:443:21:576:44 8.91156hom173KRAAINEM
157.981GOORIS VINCENT51BEL3:21:453:22:076:45 8.91157hom174MÉLIN
158.950SERAFIN LORENZO39BEL3:22:183:22:406:46 8.88158hom175WAUDREZ
159.1327VAN DURME CHRISTOPHE31BEL3:23:003:23:136:47 8.86159hom177BRUXELLES
160.1272LAMBERT FRÉDÉRIC33BEL3:23:033:23:276:47 8.85160hom178BRAINE-LE-COMTE
161.1295DETREZ JEAN-SEBASTIEN30BEL3:23:153:23:306:47 8.85161hom179MARBAIS
162.417CACHEUX JEAN-NOËL46BEL3:23:053:23:336:48 8.84162hom180BRUXELLES
163.112BORREMANS FRÉDÉRIC41BEL3:23:293:23:396:48 8.84163hom181LIMELETTE
164.995PLOYAERT ERIC63BEL3:23:283:23:416:48 8.84164hom182LOBBES
165.402LEJEUNE TOM45BEL3:23:543:24:146:49 8.81165hom183NIVELLES
166.991VERBEEK JEAN-LUC64BEL3:24:073:24:326:50 8.80166hom184BOUSVAL
167.285LUQUE CHRISTIAN51BEL3:24:503:25:196:51 8.77167hom185METTET
168.524JESSE PHILIPPE50BEL3:25:583:26:176:53 8.73168hom186
169.1257VERSPECHT THIERRY57BEL3:26:333:26:546:54 8.70169hom187WEZEMBEEK-OPPEM
170.962DEVOS JEAN-FRANÇOIS45BEL3:26:233:26:556:54 8.70170hom188CHARLEROI
171.491ROUSSEAUX BENOIT55BEL3:26:503:27:156:55 8.69171hom189ZAVENTEM
172.1033LAURENT JULIEN42BEL3:27:043:27:306:55 8.68172hom190WALHAIN
173.1300LOSSEAU BENOIT41BEL3:27:053:27:316:56 8.67173hom191MELLET
174.373SAUME OLIVIER41BEL3:27:013:27:316:56 8.67174hom192RIXENSART
175.1324PERICLES KONSTANTOPOULOS66GRC3:27:073:27:346:56 8.67175hom193BEERSEL
176.356MALENGREAU FREDERIC49BEL3:27:173:27:346:56 8.67176hom194LONZÉE
177.1081SANTAROSSA SILVIO44BEL3:27:103:27:366:56 8.67177hom195MONTIGNY-LE-TILLEUL
178.442MICHAUX LUC45BEL3:27:403:27:536:56 8.66178hom197SCHALTIN
179.1008DEGREZ FRANÇOIS33BEL3:27:393:27:596:56 8.66179hom198NAMUR
180.480DE BOCK PHILIP46BEL3:28:433:28:556:58 8.62180hom199OTTIGNIES
181.162SIX JULIEN28FRA3:28:363:28:576:58 8.61181hom200LILLE
182.312MARZULLO GIROLAMO48ITA3:28:413:29:026:59 8.61182hom201NIVELLES
183.1053LASZLO ILLES41HUN3:28:543:29:226:59 8.60183hom202AUDERGHEM
184.388MANFRON ELISEO52ITA3:29:333:29:467:00 8.58184hom203DION VALMONT
185.398BRUGGEMANS BRUNO30BEL3:31:523:32:177:05 8.48185hom205COURT-SAINT-ETIENNE
186.136PLAQUET QUENTIN66BEL3:34:003:34:297:09 8.39186hom210FELUY
187.1404PLASMAN PIERRE36BEL3:34:053:34:297:09 8.39187hom211SART-DAMES-AVELINES
188.363MISPLON JORIS31BEL3:34:113:34:407:10 8.39188hom212LICHTERVELDE
189.420VAN GENECHTEN SERGE57BEL3:34:483:35:127:11 8.36189hom213WATERLOO
190.268LAGOUGE BERNARD52BEL3:35:573:36:157:13 8.32190hom214LA HULPE
191.963SCHOENAERTS KRIS38BEL3:35:593:36:177:13 8.32191hom216TONGEREN
192.471BERTRAND PHILIPPE VICTOR52BEL3:36:063:36:287:13 8.32192hom217COURT-SAINT-ETIENNE
193.332BISIAU PHILIPPE57FRA3:36:253:36:507:14 8.30193hom218BOUSIGNIES
194.412TRICOT SEBASTIEN41BEL3:36:343:36:567:14 8.30194hom219MONCEAU-SUR-SAMBREAU-SUR-SAMBREE
195.960VANCOLEN YANNICK53BEL3:36:343:37:017:15 8.29195hom220RAMILLIES
196.173HANSEZ BENOÎT41BEL3:37:003:37:067:15 8.29196hom221RHODE-SAINT-GENÈSE
197.459PORTER RYAN32GBR3:37:013:37:207:15 8.28197hom222BRUXELLES
198.377GAGLIARDI PIERRE45ITA3:38:043:38:257:17 8.24198hom223LA LOUVIÈRE
199.437GORGEMANS LAURENT48BEL3:38:333:38:397:18 8.23199hom224NOBRESSART
200.403GIRODROUX THOMAS37BEL3:39:213:39:407:20 8.19200hom227AUDERGHEM
201.1286CLEIRENS MARIO51BEL3:41:243:41:417:24 8.12201hom229MELSELE
202.147PILETTE DANNY53BEL3:42:383:43:007:26 8.07202hom230BINCHE
203.386PINDEVILLE CHRISTIAN70BEL3:44:073:44:237:29 8.02203hom233WAVRE
204.1075LEMLIN GRÉGORY38BEL3:44:113:44:277:29 8.02204hom234MARBAIS
205.1273CORBISIER ARNAUD43BEL3:44:123:44:277:29 8.02205hom235VILLERS LA VILLE
206.1045VANDERMOSTEN XAVIER53BEL3:44:113:44:277:29 8.02206hom236VILLERS-LA-VILLE
207.4GEETS BERTRAND48BEL3:46:523:47:007:34 7.93207hom238GELBRESSEE
208.117VINCART FREDERIC45BEL3:49:073:49:247:39 7.85208hom239GENTINNES
209.477DESPY PASCAL38BEL3:51:423:52:087:45 7.75209hom241
210.967MINE FABRICE45BEL3:55:243:55:447:52 7.64210hom244BIOUL
211.1290ODENT MAXIME25BEL3:56:133:56:187:53 7.62211hom246BOUSVAL
212.422AUQUIER HERVÉ51BEL3:56:403:57:027:55 7.59212hom247WAVRE
213.1265DELBOUILLE THIERRY51BEL4:13:524:14:228:29 7.08213hom255SOIGNIES
214.1291PATERNOSTRE LAURENT51BEL4:21:554:22:198:45 6.86214hom256ATH
215.395PRÉVOST JULIEN41BEL4:21:554:22:198:45 6.86215hom257MONTIGNIES-SUR-SAMBRE
216.382DELILLE FRÉDÉRIC51BEL4:21:574:22:218:45 6.86216hom258ATH
217.1040PIQUARD BEN51BEL4:27:014:27:198:55 6.73217hom259GENVAL
218.1066QUINAUX CHRISTOPHE44BEL4:33:324:33:429:08 6.58218hom260WAYS
DNF1531BAYET JACQUES48BELhomCOURCELLES
DNF970GALVEZ GAUTHIER38FRAhomJEMEPPE-SUR-SAMBRE
DNF996HUBEAUX RICHARD48BELhomFLAWINNE
DNF959SANTINI NICOLAS19FRAhomBRUXELLES
DNF1041VAN HEUVERSWYN MAXIME30BELhomRAMILLIES
DNF354VAN TUIJCOM BENJAMIN28BELhomBRAINE L’ALLEUD
DNF227WILLEMS MAARTEN37BELhomGENT
DNF: did not finish; DSQ: disqualified; Speed in km/h
Page: [1]